sensor_id;sensor_type;location;lat;lon;timestamp;temperature;humidity
70170;DHT22;57543;45.442;9.212;2024-01-15T00:02:44;3.58;82.82
70170;DHT22;57543;45.442;9.212;2024-01-15T00:05:48;3.63;82.76
70170;DHT22;57543;45.442;9.212;2024-01-15T00:08:52;3.57;82.45
70170;DHT22;57543;45.442;9.212;2024-01-15T00:11:59;3.40;83.08
70170;DHT22;57543;45.442;9.212;2024-01-15T00:15:03;3.30;83.62
70170;DHT22;57543;45.442;9.212;2024-01-15T00:18:08;3.39;83.54
70170;DHT22;57543;45.442;9.212;2024-01-15T00:21:12;3.44;83.48
70170;DHT22;57543;45.442;9.212;2024-01-15T00:24:16;3.33;83.42
70170;DHT22;57543;45.442;9.212;2024-01-15T00:27:20;3.39;83.38
70170;DHT22;57543;45.442;9.212;2024-01-15T00:30:24;3.44;83.25
70170;DHT22;57543;45.442;9.212;2024-01-15T00:33:27;3.47;83.09
70170;DHT22;57543;45.442;9.212;2024-01-15T00:36:31;3.36;83.08
70170;DHT22;57543;45.442;9.212;2024-01-15T00:39:34;3.26;83.30
70170;DHT22;57543;45.442;9.212;2024-01-15T00:42:39;3.16;83.63
70170;DHT22;57543;45.442;9.212;2024-01-15T00:45:42;3.19;83.75
70170;DHT22;57543;45.442;9.212;2024-01-15T00:48:46;3.31;83.76
70170;DHT22;57543;45.442;9.212;2024-01-15T00:51:50;3.29;83.62
70170;DHT22;57543;45.442;9.212;2024-01-15T00:54:55;3.29;83.59
70170;DHT22;57543;45.442;9.212;2024-01-15T00:57:59;3.23;83.88
70170;DHT22;57543;45.442;9.212;2024-01-15T01:01:02;3.30;83.83
70170;DHT22;57543;45.442;9.212;2024-01-15T01:04:06;3.37;83.46
70170;DHT22;57543;45.442;9.212;2024-01-15T01:07:09;3.30;83.70
70170;DHT22;57543;45.442;9.212;2024-01-15T01:10:13;3.31;83.88
70170;DHT22;57543;45.442;9.212;2024-01-15T01:13:16;3.31;84.10
70170;DHT22;57543;45.442;9.212;2024-01-15T01:16:20;3.31;84.08
70170;DHT22;57543;45.442;9.212;2024-01-15T01:19:23;3.29;84.25
70170;DHT22;57543;45.442;9.212;2024-01-15T01:22:28;3.27;84.37
70170;DHT22;57543;45.442;9.212;2024-01-15T01:25:31;3.30;84.52
70170;DHT22;57543;45.442;9.212;2024-01-15T01:28:35;3.30;84.53
70170;DHT22;57543;45.442;9.212;2024-01-15T01:31:43;3.33;84.33
70170;DHT22;57543;45.442;9.212;2024-01-15T01:34:47;3.36;84.37
70170;DHT22;57543;45.442;9.212;2024-01-15T01:37:51;3.37;84.24
70170;DHT22;57543;45.442;9.212;2024-01-15T01:40:54;3.41;84.03
70170;DHT22;57543;45.442;9.212;2024-01-15T01:43:57;3.40;84.02
70170;DHT22;57543;45.442;9.212;2024-01-15T01:47:01;3.37;84.09
70170;DHT22;57543;45.442;9.212;2024-01-15T01:50:05;3.44;83.96
70170;DHT22;57543;45.442;9.212;2024-01-15T01:53:09;3.46;83.65
70170;DHT22;57543;45.442;9.212;2024-01-15T01:56:13;3.56;83.50
70170;DHT22;57543;45.442;9.212;2024-01-15T01:59:18;3.47;83.30
70170;DHT22;57543;45.442;9.212;2024-01-15T02:02:22;3.50;83.31
70170;DHT22;57543;45.442;9.212;2024-01-15T02:05:26;3.60;83.09
70170;DHT22;57543;45.442;9.212;2024-01-15T02:08:30;3.63;82.92
70170;DHT22;57543;45.442;9.212;2024-01-15T02:11:34;3.64;82.90
70170;DHT22;57543;45.442;9.212;2024-01-15T02:14:39;3.64;82.61
70170;DHT22;57543;45.442;9.212;2024-01-15T02:18:03;3.54;82.81
70170;DHT22;57543;45.442;9.212;2024-01-15T02:21:08;3.40;83.44
70170;DHT22;57543;45.442;9.212;2024-01-15T02:24:11;3.40;83.61
70170;DHT22;57543;45.442;9.212;2024-01-15T02:27:15;3.37;83.77
70170;DHT22;57543;45.442;9.212;2024-01-15T02:30:19;3.39;83.96
70170;DHT22;57543;45.442;9.212;2024-01-15T02:33:23;3.43;83.88
70170;DHT22;57543;45.442;9.212;2024-01-15T02:36:27;3.47;83.78
70170;DHT22;57543;45.442;9.212;2024-01-15T02:39:30;3.57;83.60
70170;DHT22;57543;45.442;9.212;2024-01-15T02:42:34;3.44;83.56
70170;DHT22;57543;45.442;9.212;2024-01-15T02:45:38;3.48;83.29
70170;DHT22;57543;45.442;9.212;2024-01-15T02:48:42;3.53;83.47
70170;DHT22;57543;45.442;9.212;2024-01-15T02:51:45;3.54;83.39
70170;DHT22;57543;45.442;9.212;2024-01-15T02:54:50;3.48;83.25
70170;DHT22;57543;45.442;9.212;2024-01-15T02:57:53;3.48;83.39
70170;DHT22;57543;45.442;9.212;2024-01-15T03:00:57;3.53;83.33
70170;DHT22;57543;45.442;9.212;2024-01-15T03:04:01;3.63;83.24
70170;DHT22;57543;45.442;9.212;2024-01-15T03:07:04;3.68;82.89
70170;DHT22;57543;45.442;9.212;2024-01-15T03:10:09;3.70;82.59
70170;DHT22;57543;45.442;9.212;2024-01-15T03:13:13;3.73;82.43
70170;DHT22;57543;45.442;9.212;2024-01-15T03:16:16;3.68;82.35
70170;DHT22;57543;45.442;9.212;2024-01-15T03:19:20;3.73;82.29
70170;DHT22;57543;45.442;9.212;2024-01-15T03:22:23;3.70;82.22
70170;DHT22;57543;45.442;9.212;2024-01-15T03:25:27;3.71;82.25
70170;DHT22;57543;45.442;9.212;2024-01-15T03:28:33;3.65;82.31
70170;DHT22;57543;45.442;9.212;2024-01-15T03:31:37;3.43;83.23
70170;DHT22;57543;45.442;9.212;2024-01-15T03:34:40;3.48;83.40
70170;DHT22;57543;45.442;9.212;2024-01-15T03:37:43;3.51;83.33
70170;DHT22;57543;45.442;9.212;2024-01-15T03:40:46;3.61;83.19
70170;DHT22;57543;45.442;9.212;2024-01-15T03:43:50;3.56;83.09
70170;DHT22;57543;45.442;9.212;2024-01-15T03:46:53;3.40;83.98
70170;DHT22;57543;45.442;9.212;2024-01-15T03:49:57;3.43;83.97
70170;DHT22;57543;45.442;9.212;2024-01-15T03:53:00;3.58;83.75
70170;DHT22;57543;45.442;9.212;2024-01-15T03:56:05;3.58;83.50
70170;DHT22;57543;45.442;9.212;2024-01-15T03:59:08;3.58;83.51
70170;DHT22;57543;45.442;9.212;2024-01-15T04:02:12;3.64;83.43
70170;DHT22;57543;45.442;9.212;2024-01-15T04:05:16;3.68;83.38
70170;DHT22;57543;45.442;9.212;2024-01-15T04:08:19;3.74;83.22
70170;DHT22;57543;45.442;9.212;2024-01-15T04:11:23;3.82;82.92
70170;DHT22;57543;45.442;9.212;2024-01-15T04:14:26;3.84;82.83
70170;DHT22;57543;45.442;9.212;2024-01-15T04:17:32;3.91;82.68
70170;DHT22;57543;45.442;9.212;2024-01-15T04:20:37;3.88;82.57
70170;DHT22;57543;45.442;9.212;2024-01-15T04:23:40;3.86;82.53
70170;DHT22;57543;45.442;9.212;2024-01-15T04:26:45;3.79;82.75
70170;DHT22;57543;45.442;9.212;2024-01-15T04:29:49;3.88;82.64
70170;DHT22;57543;45.442;9.212;2024-01-15T04:32:53;3.78;82.65
70170;DHT22;57543;45.442;9.212;2024-01-15T04:35:57;3.67;83.05
70170;DHT22;57543;45.442;9.212;2024-01-15T04:39:00;3.60;83.29
70170;DHT22;57543;45.442;9.212;2024-01-15T04:42:03;3.51;83.61
70170;DHT22;57543;45.442;9.212;2024-01-15T04:45:07;3.39;84.00
70170;DHT22;57543;45.442;9.212;2024-01-15T04:48:11;3.48;83.72
70170;DHT22;57543;45.442;9.212;2024-01-15T04:51:14;3.58;83.62
70170;DHT22;57543;45.442;9.212;2024-01-15T04:54:18;3.63;83.39
70170;DHT22;57543;45.442;9.212;2024-01-15T04:57:22;3.65;83.38
70170;DHT22;57543;45.442;9.212;2024-01-15T05:00:25;3.68;83.18
70170;DHT22;57543;45.442;9.212;2024-01-15T05:03:28;3.68;83.06
70170;DHT22;57543;45.442;9.212;2024-01-15T05:06:33;3.64;83.16
70170;DHT22;57543;45.442;9.212;2024-01-15T05:09:39;3.67;83.21
70170;DHT22;57543;45.442;9.212;2024-01-15T05:12:42;3.39;84.48
70170;DHT22;57543;45.442;9.212;2024-01-15T05:15:46;3.31;84.73
70170;DHT22;57543;45.442;9.212;2024-01-15T05:18:57;3.47;84.43
70170;DHT22;57543;45.442;9.212;2024-01-15T05:22:01;3.54;84.07
70170;DHT22;57543;45.442;9.212;2024-01-15T05:25:05;3.65;83.79
70170;DHT22;57543;45.442;9.212;2024-01-15T05:28:09;3.68;83.51
70170;DHT22;57543;45.442;9.212;2024-01-15T05:31:13;3.74;83.32
70170;DHT22;57543;45.442;9.212;2024-01-15T05:34:16;3.60;83.76
70170;DHT22;57543;45.442;9.212;2024-01-15T05:37:19;3.60;83.66
70170;DHT22;57543;45.442;9.212;2024-01-15T05:40:23;3.70;83.51
70170;DHT22;57543;45.442;9.212;2024-01-15T05:43:26;3.81;83.19
70170;DHT22;57543;45.442;9.212;2024-01-15T05:46:30;3.89;82.89
70170;DHT22;57543;45.442;9.212;2024-01-15T05:49:33;3.91;82.73
70170;DHT22;57543;45.442;9.212;2024-01-15T05:52:37;3.85;82.56
70170;DHT22;57543;45.442;9.212;2024-01-15T05:55:41;3.89;82.68
70170;DHT22;57543;45.442;9.212;2024-01-15T05:58:44;3.88;82.55
70170;DHT22;57543;45.442;9.212;2024-01-15T06:01:48;3.82;82.42
70170;DHT22;57543;45.442;9.212;2024-01-15T06:04:51;3.79;82.49
70170;DHT22;57543;45.442;9.212;2024-01-15T06:07:58;3.78;82.56
70170;DHT22;57543;45.442;9.212;2024-01-15T06:11:01;3.79;82.52
70170;DHT22;57543;45.442;9.212;2024-01-15T06:14:08;3.88;82.53
70170;DHT22;57543;45.442;9.212;2024-01-15T06:17:12;3.89;82.74
70170;DHT22;57543;45.442;9.212;2024-01-15T06:20:15;3.84;82.73
70170;DHT22;57543;45.442;9.212;2024-01-15T06:23:19;3.81;82.76
70170;DHT22;57543;45.442;9.212;2024-01-15T06:26:23;3.74;82.70
70170;DHT22;57543;45.442;9.212;2024-01-15T06:29:27;3.73;82.75
70170;DHT22;57543;45.442;9.212;2024-01-15T06:32:31;3.74;82.74
70170;DHT22;57543;45.442;9.212;2024-01-15T06:35:34;3.73;82.74
70170;DHT22;57543;45.442;9.212;2024-01-15T06:38:38;3.74;82.66
70170;DHT22;57543;45.442;9.212;2024-01-15T06:41:42;3.65;82.59
70170;DHT22;57543;45.442;9.212;2024-01-15T06:44:55;3.60;82.65
70170;DHT22;57543;45.442;9.212;2024-01-15T06:48:01;3.46;82.82
70170;DHT22;57543;45.442;9.212;2024-01-15T06:51:04;3.51;82.92
70170;DHT22;57543;45.442;9.212;2024-01-15T06:54:10;3.51;82.98
70170;DHT22;57543;45.442;9.212;2024-01-15T06:57:14;3.46;82.80
70170;DHT22;57543;45.442;9.212;2024-01-15T07:00:17;3.30;83.06
70170;DHT22;57543;45.442;9.212;2024-01-15T07:03:23;3.34;83.10
70170;DHT22;57543;45.442;9.212;2024-01-15T07:06:26;3.33;83.14
70170;DHT22;57543;45.442;9.212;2024-01-15T07:09:30;3.20;83.47
70170;DHT22;57543;45.442;9.212;2024-01-15T07:12:35;3.09;83.91
70170;DHT22;57543;45.442;9.212;2024-01-15T07:15:39;3.15;84.07
70170;DHT22;57543;45.442;9.212;2024-01-15T07:18:42;3.20;84.10
70170;DHT22;57543;45.442;9.212;2024-01-15T07:21:47;3.20;83.97
70170;DHT22;57543;45.442;9.212;2024-01-15T07:24:50;3.23;84.06
70170;DHT22;57543;45.442;9.212;2024-01-15T07:27:53;3.26;84.11
70170;DHT22;57543;45.442;9.212;2024-01-15T07:30:59;3.22;83.91
70170;DHT22;57543;45.442;9.212;2024-01-15T07:34:04;3.24;84.05
70170;DHT22;57543;45.442;9.212;2024-01-15T07:37:07;3.20;84.04
70170;DHT22;57543;45.442;9.212;2024-01-15T07:40:11;3.27;84.01
70170;DHT22;57543;45.442;9.212;2024-01-15T07:43:15;3.12;84.07
70170;DHT22;57543;45.442;9.212;2024-01-15T07:46:19;2.96;84.59
70170;DHT22;57543;45.442;9.212;2024-01-15T07:49:23;2.80;85.46
70170;DHT22;57543;45.442;9.212;2024-01-15T07:52:27;2.58;86.89
70170;DHT22;57543;45.442;9.212;2024-01-15T07:55:31;2.77;86.55
70170;DHT22;57543;45.442;9.212;2024-01-15T07:58:35;2.95;86.16
70170;DHT22;57543;45.442;9.212;2024-01-15T08:01:39;3.05;85.83
70170;DHT22;57543;45.442;9.212;2024-01-15T08:04:43;3.05;85.54
70170;DHT22;57543;45.442;9.212;2024-01-15T08:07:47;3.41;87.11
70170;DHT22;57543;45.442;9.212;2024-01-15T08:10:54;3.46;85.88
70170;DHT22;57543;45.442;9.212;2024-01-15T08:13:57;3.48;85.68
70170;DHT22;57543;45.442;9.212;2024-01-15T08:17:00;3.37;85.04
70170;DHT22;57543;45.442;9.212;2024-01-15T08:20:05;3.48;85.25
70170;DHT22;57543;45.442;9.212;2024-01-15T08:23:09;3.47;84.91
70170;DHT22;57543;45.442;9.212;2024-01-15T08:26:13;3.54;84.74
70170;DHT22;57543;45.442;9.212;2024-01-15T08:29:17;3.57;84.55
70170;DHT22;57543;45.442;9.212;2024-01-15T08:32:22;3.56;84.34
70170;DHT22;57543;45.442;9.212;2024-01-15T08:35:25;3.44;83.86
70170;DHT22;57543;45.442;9.212;2024-01-15T08:38:28;3.24;84.00
70170;DHT22;57543;45.442;9.212;2024-01-15T08:41:33;3.24;84.56
70170;DHT22;57543;45.442;9.212;2024-01-15T08:44:36;3.29;84.82
70170;DHT22;57543;45.442;9.212;2024-01-15T08:47:40;3.39;84.74
70170;DHT22;57543;45.442;9.212;2024-01-15T08:50:44;3.41;84.66
70170;DHT22;57543;45.442;9.212;2024-01-15T08:53:53;3.47;84.67
70170;DHT22;57543;45.442;9.212;2024-01-15T08:56:57;3.48;84.38
70170;DHT22;57543;45.442;9.212;2024-01-15T09:00:04;3.54;84.42
70170;DHT22;57543;45.442;9.212;2024-01-15T09:03:12;3.56;84.45
70170;DHT22;57543;45.442;9.212;2024-01-15T09:06:15;3.54;84.42
70170;DHT22;57543;45.442;9.212;2024-01-15T09:09:18;3.79;85.14
70170;DHT22;57543;45.442;9.212;2024-01-15T09:12:22;3.84;84.66
70170;DHT22;57543;45.442;9.212;2024-01-15T09:15:26;3.75;84.26
70170;DHT22;57543;45.442;9.212;2024-01-15T09:18:31;3.85;84.52
70170;DHT22;57543;45.442;9.212;2024-01-15T09:21:35;3.65;84.23
70170;DHT22;57543;45.442;9.212;2024-01-15T09:24:40;3.70;84.46
70170;DHT22;57543;45.442;9.212;2024-01-15T09:27:44;3.67;84.19
70170;DHT22;57543;45.442;9.212;2024-01-15T09:30:48;3.64;84.28
70170;DHT22;57543;45.442;9.212;2024-01-15T09:33:52;3.65;84.27
70170;DHT22;57543;45.442;9.212;2024-01-15T09:36:59;3.70;84.03
70170;DHT22;57543;45.442;9.212;2024-01-15T09:40:08;3.84;83.88
70170;DHT22;57543;45.442;9.212;2024-01-15T09:43:18;3.95;83.53
70170;DHT22;57543;45.442;9.212;2024-01-15T09:46:22;4.07;83.29
70170;DHT22;57543;45.442;9.212;2024-01-15T09:49:26;4.16;82.87
70170;DHT22;57543;45.442;9.212;2024-01-15T09:52:30;4.20;82.49
70170;DHT22;57543;45.442;9.212;2024-01-15T09:55:34;4.36;82.94
70170;DHT22;57543;45.442;9.212;2024-01-15T09:58:38;4.65;82.40
70170;DHT22;57543;45.442;9.212;2024-01-15T10:01:43;5.17;81.66
70170;DHT22;57543;45.442;9.212;2024-01-15T10:04:47;5.69;79.42
70170;DHT22;57543;45.442;9.212;2024-01-15T10:07:51;6.17;78.04
70170;DHT22;57543;45.442;9.212;2024-01-15T10:10:56;6.58;76.35
70170;DHT22;57543;45.442;9.212;2024-01-15T10:14:00;6.99;74.87
70170;DHT22;57543;45.442;9.212;2024-01-15T10:17:13;7.43;73.24
70170;DHT22;57543;45.442;9.212;2024-01-15T10:20:20;7.44;72.29
70170;DHT22;57543;45.442;9.212;2024-01-15T10:23:25;7.87;71.75
70170;DHT22;57543;45.442;9.212;2024-01-15T10:26:29;8.24;70.68
70170;DHT22;57543;45.442;9.212;2024-01-15T10:29:33;8.59;69.49
70170;DHT22;57543;45.442;9.212;2024-01-15T10:32:36;8.83;68.55
70170;DHT22;57543;45.442;9.212;2024-01-15T10:35:40;9.11;67.50
70170;DHT22;57543;45.442;9.212;2024-01-15T10:38:44;9.20;65.10
70170;DHT22;57543;45.442;9.212;2024-01-15T10:41:49;9.35;66.23
70170;DHT22;57543;45.442;9.212;2024-01-15T10:44:58;9.68;65.71
70170;DHT22;57543;45.442;9.212;2024-01-15T10:48:05;10.04;64.68
70170;DHT22;57543;45.442;9.212;2024-01-15T10:51:08;10.32;63.48
70170;DHT22;57543;45.442;9.212;2024-01-15T10:54:14;10.45;62.30
70170;DHT22;57543;45.442;9.212;2024-01-15T10:57:20;10.73;62.19
70170;DHT22;57543;45.442;9.212;2024-01-15T11:00:24;10.70;61.70
70170;DHT22;57543;45.442;9.212;2024-01-15T11:03:28;10.89;61.20
70170;DHT22;57543;45.442;9.212;2024-01-15T11:06:42;11.10;61.23
70170;DHT22;57543;45.442;9.212;2024-01-15T11:09:46;10.92;60.56
70170;DHT22;57543;45.442;9.212;2024-01-15T11:12:50;11.28;60.58
70170;DHT22;57543;45.442;9.212;2024-01-15T11:19:02;11.70;60.01
70170;DHT22;57543;45.442;9.212;2024-01-15T11:22:08;12.10;58.92
70170;DHT22;57543;45.442;9.212;2024-01-15T11:25:13;12.84;56.35
70170;DHT22;57543;45.442;9.212;2024-01-15T11:28:46;14.10;53.05
70170;DHT22;57543;45.442;9.212;2024-01-15T11:34:56;16.08;48.80
70170;DHT22;57543;45.442;9.212;2024-01-15T11:38:04;17.76;44.64
70170;DHT22;57543;45.442;9.212;2024-01-15T11:41:15;19.17;41.40
70170;DHT22;57543;45.442;9.212;2024-01-15T11:44:22;20.46;39.22
70170;DHT22;57543;45.442;9.212;2024-01-15T11:48:03;20.48;37.96
70170;DHT22;57543;45.442;9.212;2024-01-15T11:51:12;21.45;36.49
70170;DHT22;57543;45.442;9.212;2024-01-15T11:54:16;21.41;35.97
70170;DHT22;57543;45.442;9.212;2024-01-15T11:57:29;21.73;35.65
70170;DHT22;57543;45.442;9.212;2024-01-15T12:00:42;21.39;35.12
70170;DHT22;57543;45.442;9.212;2024-01-15T12:03:47;18.94;39.28
70170;DHT22;57543;45.442;9.212;2024-01-15T12:06:50;19.21;39.98
70170;DHT22;57543;45.442;9.212;2024-01-15T12:09:54;17.89;41.80
70170;DHT22;57543;45.442;9.212;2024-01-15T12:13:19;17.77;41.87
70170;DHT22;57543;45.442;9.212;2024-01-15T12:16:22;16.79;43.97
70170;DHT22;57543;45.442;9.212;2024-01-15T12:19:25;15.87;44.10
70170;DHT22;57543;45.442;9.212;2024-01-15T12:22:29;15.12;46.82
70170;DHT22;57543;45.442;9.212;2024-01-15T12:25:33;15.32;46.98
70170;DHT22;57543;45.442;9.212;2024-01-15T12:28:37;15.21;46.05
70170;DHT22;57543;45.442;9.212;2024-01-15T12:31:42;15.00;47.21
70170;DHT22;57543;45.442;9.212;2024-01-15T12:34:46;14.93;47.18
70170;DHT22;57543;45.442;9.212;2024-01-15T12:37:50;14.86;47.74
70170;DHT22;57543;45.442;9.212;2024-01-15T12:40:53;14.81;47.86
70170;DHT22;57543;45.442;9.212;2024-01-15T12:43:58;14.79;48.78
70170;DHT22;57543;45.442;9.212;2024-01-15T12:47:01;14.62;49.81
70170;DHT22;57543;45.442;9.212;2024-01-15T12:50:07;14.52;49.54
70170;DHT22;57543;45.442;9.212;2024-01-15T12:53:11;14.13;50.98
70170;DHT22;57543;45.442;9.212;2024-01-15T12:56:15;14.21;50.50
70170;DHT22;57543;45.442;9.212;2024-01-15T12:59:19;14.20;49.89
70170;DHT22;57543;45.442;9.212;2024-01-15T13:02:25;14.26;50.24
70170;DHT22;57543;45.442;9.212;2024-01-15T13:05:31;14.20;50.74
70170;DHT22;57543;45.442;9.212;2024-01-15T13:08:35;14.22;50.27
70170;DHT22;57543;45.442;9.212;2024-01-15T13:11:39;14.11;51.28
70170;DHT22;57543;45.442;9.212;2024-01-15T13:14:44;13.86;53.03
70170;DHT22;57543;45.442;9.212;2024-01-15T13:17:48;13.86;51.46
70170;DHT22;57543;45.442;9.212;2024-01-15T13:20:51;14.14;50.83
70170;DHT22;57543;45.442;9.212;2024-01-15T13:23:55;14.25;51.51
70170;DHT22;57543;45.442;9.212;2024-01-15T13:26:59;14.35;50.52
70170;DHT22;57543;45.442;9.212;2024-01-15T13:30:04;13.67;52.02
70170;DHT22;57543;45.442;9.212;2024-01-15T13:33:08;13.72;52.12
70170;DHT22;57543;45.442;9.212;2024-01-15T13:36:12;13.58;52.58
70170;DHT22;57543;45.442;9.212;2024-01-15T13:39:15;13.91;52.11
70170;DHT22;57543;45.442;9.212;2024-01-15T13:42:23;14.20;51.57
70170;DHT22;57543;45.442;9.212;2024-01-15T13:45:26;14.29;51.16
70170;DHT22;57543;45.442;9.212;2024-01-15T13:48:30;14.45;50.86
70170;DHT22;57543;45.442;9.212;2024-01-15T13:51:35;14.43;50.36
70170;DHT22;57543;45.442;9.212;2024-01-15T13:54:39;14.41;50.72
70170;DHT22;57543;45.442;9.212;2024-01-15T13:57:44;13.91;51.96
70170;DHT22;57543;45.442;9.212;2024-01-15T14:00:48;14.11;51.75
70170;DHT22;57543;45.442;9.212;2024-01-15T14:03:53;13.21;53.98
70170;DHT22;57543;45.442;9.212;2024-01-15T14:06:59;13.39;53.88
70170;DHT22;57543;45.442;9.212;2024-01-15T14:10:03;13.89;53.02
70170;DHT22;57543;45.442;9.212;2024-01-15T14:13:07;13.32;54.22
70170;DHT22;57543;45.442;9.212;2024-01-15T14:16:11;13.08;54.59
70170;DHT22;57543;45.442;9.212;2024-01-15T14:19:15;13.11;54.92
70170;DHT22;57543;45.442;9.212;2024-01-15T14:22:19;12.86;55.29
70170;DHT22;57543;45.442;9.212;2024-01-15T14:25:22;12.91;55.70
70170;DHT22;57543;45.442;9.212;2024-01-15T14:28:27;12.76;56.31
70170;DHT22;57543;45.442;9.212;2024-01-15T14:31:31;13.07;55.56
70170;DHT22;57543;45.442;9.212;2024-01-15T14:34:37;13.42;54.50
70170;DHT22;57543;45.442;9.212;2024-01-15T14:37:43;13.80;53.41
70170;DHT22;57543;45.442;9.212;2024-01-15T14:40:49;14.04;52.77
70170;DHT22;57543;45.442;9.212;2024-01-15T14:43:53;13.93;53.30
70170;DHT22;57543;45.442;9.212;2024-01-15T14:46:57;14.07;52.62
70170;DHT22;57543;45.442;9.212;2024-01-15T14:50:28;14.17;52.65
70170;DHT22;57543;45.442;9.212;2024-01-15T14:53:35;14.15;52.33
70170;DHT22;57543;45.442;9.212;2024-01-15T14:56:39;14.18;52.28
70170;DHT22;57543;45.442;9.212;2024-01-15T14:59:45;13.98;53.27
70170;DHT22;57543;45.442;9.212;2024-01-15T15:02:50;13.93;53.29
70170;DHT22;57543;45.442;9.212;2024-01-15T15:05:56;13.53;54.12
70170;DHT22;57543;45.442;9.212;2024-01-15T15:09:00;13.49;54.10
70170;DHT22;57543;45.442;9.212;2024-01-15T15:12:05;13.46;54.30
70170;DHT22;57543;45.442;9.212;2024-01-15T15:15:08;13.48;54.38
70170;DHT22;57543;45.442;9.212;2024-01-15T15:18:17;13.32;54.70
70170;DHT22;57543;45.442;9.212;2024-01-15T15:21:21;13.18;55.11
70170;DHT22;57543;45.442;9.212;2024-01-15T15:24:25;12.84;55.93
70170;DHT22;57543;45.442;9.212;2024-01-15T15:27:29;12.50;56.99
70170;DHT22;57543;45.442;9.212;2024-01-15T15:30:32;11.89;59.36
70170;DHT22;57543;45.442;9.212;2024-01-15T15:33:37;11.73;59.62
70170;DHT22;57543;45.442;9.212;2024-01-15T15:36:41;11.73;59.41
70170;DHT22;57543;45.442;9.212;2024-01-15T15:39:50;11.36;60.61
70170;DHT22;57543;45.442;9.212;2024-01-15T15:42:54;11.27;61.22
70170;DHT22;57543;45.442;9.212;2024-01-15T15:45:57;11.07;61.99
70170;DHT22;57543;45.442;9.212;2024-01-15T15:49:03;10.99;62.26
70170;DHT22;57543;45.442;9.212;2024-01-15T15:52:09;10.86;62.28
70170;DHT22;57543;45.442;9.212;2024-01-15T15:55:14;10.81;62.22
70170;DHT22;57543;45.442;9.212;2024-01-15T15:58:20;10.75;62.71
70170;DHT22;57543;45.442;9.212;2024-01-15T16:01:23;10.58;63.05
70170;DHT22;57543;45.442;9.212;2024-01-15T16:04:27;10.38;64.04
70170;DHT22;57543;45.442;9.212;2024-01-15T16:07:30;10.20;64.67
70170;DHT22;57543;45.442;9.212;2024-01-15T16:10:34;10.32;64.41
70170;DHT22;57543;45.442;9.212;2024-01-15T16:13:40;10.28;64.41
70170;DHT22;57543;45.442;9.212;2024-01-15T16:16:45;10.32;64.54
70170;DHT22;57543;45.442;9.212;2024-01-15T16:19:49;10.20;64.98
70170;DHT22;57543;45.442;9.212;2024-01-15T16:22:52;10.14;65.43
70170;DHT22;57543;45.442;9.212;2024-01-15T16:26:01;10.05;65.71
70170;DHT22;57543;45.442;9.212;2024-01-15T16:29:05;9.98;66.16
70170;DHT22;57543;45.442;9.212;2024-01-15T16:32:11;9.86;66.46
70170;DHT22;57543;45.442;9.212;2024-01-15T16:35:17;9.82;66.77
70170;DHT22;57543;45.442;9.212;2024-01-15T16:38:21;9.59;67.44
70170;DHT22;57543;45.442;9.212;2024-01-15T16:41:24;9.51;67.96
70170;DHT22;57543;45.442;9.212;2024-01-15T16:44:28;9.53;67.87
70170;DHT22;57543;45.442;9.212;2024-01-15T16:47:34;9.52;68.02
70170;DHT22;57543;45.442;9.212;2024-01-15T16:50:38;9.55;68.09
70170;DHT22;57543;45.442;9.212;2024-01-15T16:53:42;9.46;68.23
70170;DHT22;57543;45.442;9.212;2024-01-15T16:56:46;9.48;68.28
70170;DHT22;57543;45.442;9.212;2024-01-15T16:59:50;9.32;68.60
70170;DHT22;57543;45.442;9.212;2024-01-15T17:02:54;9.35;68.75
70170;DHT22;57543;45.442;9.212;2024-01-15T17:05:58;9.30;68.77
70170;DHT22;57543;45.442;9.212;2024-01-15T17:09:01;9.23;69.06
70170;DHT22;57543;45.442;9.212;2024-01-15T17:12:05;9.17;69.27
70170;DHT22;57543;45.442;9.212;2024-01-15T17:15:09;9.15;69.36
70170;DHT22;57543;45.442;9.212;2024-01-15T17:18:13;9.07;69.47
70170;DHT22;57543;45.442;9.212;2024-01-15T17:21:16;9.03;69.71
70170;DHT22;57543;45.442;9.212;2024-01-15T17:24:20;8.99;69.86
70170;DHT22;57543;45.442;9.212;2024-01-15T17:27:24;8.93;69.93
70170;DHT22;57543;45.442;9.212;2024-01-15T17:30:28;8.97;69.90
70170;DHT22;57543;45.442;9.212;2024-01-15T17:33:31;8.94;70.01
70170;DHT22;57543;45.442;9.212;2024-01-15T17:36:35;8.99;69.95
70170;DHT22;57543;45.442;9.212;2024-01-15T17:39:38;8.97;69.85
70170;DHT22;57543;45.442;9.212;2024-01-15T17:42:42;8.99;69.80
70170;DHT22;57543;45.442;9.212;2024-01-15T17:45:49;8.93;69.84
70170;DHT22;57543;45.442;9.212;2024-01-15T17:48:53;8.83;70.09
70170;DHT22;57543;45.442;9.212;2024-01-15T17:51:57;8.77;70.38
70170;DHT22;57543;45.442;9.212;2024-01-15T17:55:00;8.58;70.89
70170;DHT22;57543;45.442;9.212;2024-01-15T17:58:04;8.55;71.10
70170;DHT22;57543;45.442;9.212;2024-01-15T18:01:09;8.46;71.38
70170;DHT22;57543;45.442;9.212;2024-01-15T18:04:14;8.24;72.23
70170;DHT22;57543;45.442;9.212;2024-01-15T18:07:18;8.10;72.49
70170;DHT22;57543;45.442;9.212;2024-01-15T18:10:23;8.00;72.69
70170;DHT22;57543;45.442;9.212;2024-01-15T18:13:30;7.75;74.11
70170;DHT22;57543;45.442;9.212;2024-01-15T18:16:36;7.79;73.87
70170;DHT22;57543;45.442;9.212;2024-01-15T18:19:39;7.79;73.62
70170;DHT22;57543;45.442;9.212;2024-01-15T18:22:43;7.72;73.65
70170;DHT22;57543;45.442;9.212;2024-01-15T18:25:46;7.68;73.95
70170;DHT22;57543;45.442;9.212;2024-01-15T18:28:50;7.65;74.17
70170;DHT22;57543;45.442;9.212;2024-01-15T18:31:54;7.54;74.23
70170;DHT22;57543;45.442;9.212;2024-01-15T18:34:57;7.47;74.65
70170;DHT22;57543;45.442;9.212;2024-01-15T18:38:01;7.44;74.75
70170;DHT22;57543;45.442;9.212;2024-01-15T18:41:05;7.35;74.78
70170;DHT22;57543;45.442;9.212;2024-01-15T18:44:09;7.34;75.27
70170;DHT22;57543;45.442;9.212;2024-01-15T18:47:12;7.32;75.10
70170;DHT22;57543;45.442;9.212;2024-01-15T18:50:16;7.27;75.13
70170;DHT22;57543;45.442;9.212;2024-01-15T18:53:20;7.27;75.56
70170;DHT22;57543;45.442;9.212;2024-01-15T18:56:24;7.26;75.54
70170;DHT22;57543;45.442;9.212;2024-01-15T18:59:28;7.35;75.70
70170;DHT22;57543;45.442;9.212;2024-01-15T19:02:34;7.52;75.45
70170;DHT22;57543;45.442;9.212;2024-01-15T19:05:39;7.54;75.19
70170;DHT22;57543;45.442;9.212;2024-01-15T19:08:45;7.47;75.22
70170;DHT22;57543;45.442;9.212;2024-01-15T19:11:48;7.37;75.36
70170;DHT22;57543;45.442;9.212;2024-01-15T19:14:52;7.43;75.52
70170;DHT22;57543;45.442;9.212;2024-01-15T19:17:59;7.35;75.88
70170;DHT22;57543;45.442;9.212;2024-01-15T19:21:03;7.51;75.62
70170;DHT22;57543;45.442;9.212;2024-01-15T19:24:06;7.51;75.65
70170;DHT22;57543;45.442;9.212;2024-01-15T19:27:10;7.41;75.71
70170;DHT22;57543;45.442;9.212;2024-01-15T19:30:14;7.45;75.86
70170;DHT22;57543;45.442;9.212;2024-01-15T19:33:21;7.47;75.75
70170;DHT22;57543;45.442;9.212;2024-01-15T19:36:25;7.37;75.98
70170;DHT22;57543;45.442;9.212;2024-01-15T19:39:38;7.24;76.40
70170;DHT22;57543;45.442;9.212;2024-01-15T19:42:42;7.41;76.31
70170;DHT22;57543;45.442;9.212;2024-01-15T19:45:45;7.55;76.13
70170;DHT22;57543;45.442;9.212;2024-01-15T19:48:49;7.54;76.19